createdAt,value
2019-04-22T00:01:20.566Z,9.28
2019-04-22T00:03:52.722Z,9.26
2019-04-22T00:06:42.461Z,9.02
2019-04-22T00:09:12.524Z,9.00
2019-04-22T00:11:45.664Z,9.02
2019-04-22T00:14:05.607Z,9.03
2019-04-22T00:16:47.254Z,8.99
2019-04-22T00:19:24.331Z,8.91
2019-04-22T00:21:50.218Z,8.93
2019-04-22T00:24:20.422Z,8.88
2019-04-22T00:29:39.269Z,8.47
2019-04-22T00:31:57.523Z,8.14
2019-04-22T00:34:25.471Z,8.13
2019-04-22T00:36:54.840Z,7.84
2019-04-22T00:39:33.709Z,7.88
2019-04-22T00:41:56.485Z,8.03
2019-04-22T00:44:31.822Z,8.11
2019-04-22T00:47:01.808Z,8.16
2019-04-22T00:52:05.176Z,8.20
2019-04-22T00:54:28.203Z,8.22
2019-04-22T00:57:01.261Z,8.43
2019-04-22T00:59:29.783Z,8.50
2019-04-22T01:02:07.504Z,8.60
2019-04-22T01:04:43.760Z,8.51
2019-04-22T01:07:04.075Z,8.49
2019-04-22T01:09:38.939Z,8.44
2019-04-22T01:12:08.720Z,8.39
2019-04-22T01:14:38.276Z,8.30
2019-04-22T01:17:09.298Z,8.32
2019-04-22T01:19:39.025Z,8.35
2019-04-22T01:22:06.432Z,8.52
2019-04-22T01:24:32.315Z,8.59
2019-04-22T01:27:01.915Z,8.54
2019-04-22T01:29:30.882Z,8.40
2019-04-22T01:31:48.845Z,8.09
2019-04-22T01:34:33.538Z,8.06
2019-04-22T01:37:02.934Z,8.08
2019-04-22T01:39:43.931Z,8.02
2019-04-22T01:42:12.076Z,7.95
2019-04-22T01:44:48.192Z,8.14
2019-04-22T01:47:19.640Z,8.09
2019-04-22T01:49:50.661Z,8.08
2019-04-22T01:52:15.434Z,8.07
2019-04-22T01:54:51.530Z,8.15
2019-04-22T01:57:19.149Z,8.17
2019-04-22T01:59:48.799Z,8.23
2019-04-22T02:02:23.576Z,8.19
2019-04-22T02:04:53.192Z,8.25
2019-04-22T02:07:27.992Z,8.15
2019-04-22T02:10:12.329Z,8.15
2019-04-22T02:12:25.792Z,7.96
2019-04-22T02:14:52.358Z,8.08
2019-04-22T02:17:32.807Z,7.95
2019-04-22T02:20:00.527Z,7.98
2019-04-22T02:22:41.628Z,8.04
2019-04-22T02:24:58.656Z,7.99
2019-04-22T02:27:35.219Z,7.96
2019-04-22T02:29:57.962Z,8.00
2019-04-22T02:32:49.567Z,7.91
2019-04-22T02:35:05.739Z,7.70
2019-04-22T02:37:29.671Z,7.59
2019-04-22T02:40:09.261Z,7.62
2019-04-22T02:42:41.320Z,7.66
2019-04-22T02:44:58.100Z,7.52
2019-04-22T02:47:50.342Z,7.42
2019-04-22T02:50:06.474Z,7.34
2019-04-22T02:52:37.469Z,7.39
2019-04-22T02:55:07.288Z,7.18
2019-04-22T03:00:24.273Z,7.25
2019-04-22T03:02:50.608Z,7.16
2019-04-22T03:05:18.791Z,7.22
2019-04-22T03:07:50.647Z,7.17
2019-04-22T03:10:37.962Z,7.03
2019-04-22T03:12:41.887Z,7.12
2019-04-22T03:17:58.395Z,7.17
2019-04-22T03:22:46.833Z,7.15
2019-04-22T03:40:34.647Z,7.22
2019-04-22T03:42:56.039Z,7.29
2019-04-22T03:50:25.270Z,6.97
2019-04-22T03:57:56.023Z,6.07
2019-04-22T04:03:04.957Z,6.25
2019-04-22T04:08:12.074Z,6.54
2019-04-22T04:10:35.362Z,6.43
2019-04-22T04:13:02.756Z,6.31
2019-04-22T04:15:34.312Z,6.28
2019-04-22T04:18:06.857Z,6.33
2019-04-22T04:23:08.352Z,6.47
2019-04-22T04:25:46.727Z,6.47
2019-04-22T04:30:31.256Z,6.68
2019-04-22T04:33:06.894Z,6.51
2019-04-22T04:35:40.480Z,6.64
2019-04-22T04:38:07.919Z,6.70
2019-04-22T04:40:33.230Z,6.65
2019-04-22T04:43:10.027Z,6.67
2019-04-22T04:48:18.447Z,6.77
2019-04-22T04:53:12.499Z,6.82
2019-04-22T04:55:35.166Z,6.84
2019-04-22T04:58:36.707Z,6.84
2019-04-22T05:05:39.623Z,6.65
2019-04-22T05:08:32.959Z,6.72
2019-04-22T05:13:33.632Z,7.22
2019-04-22T05:21:02.908Z,7.29
2019-04-22T05:23:16.241Z,7.46
2019-04-22T05:25:43.206Z,7.50
2019-04-22T05:28:15.113Z,7.53
2019-04-22T05:30:46.046Z,7.47
2019-04-22T05:33:14.247Z,7.52
2019-04-22T05:35:46.462Z,7.79
2019-04-22T05:40:51.509Z,7.91
2019-04-22T05:43:21.625Z,7.97
2019-04-22T05:45:51.360Z,8.17
2019-04-22T05:48:18.792Z,8.28
2019-04-22T05:50:52.563Z,8.43
2019-04-22T05:53:20.094Z,8.64
2019-04-22T05:56:17.126Z,8.74
2019-04-22T05:58:22.522Z,9.02
2019-04-22T06:01:30.741Z,9.30
2019-04-22T06:03:39.459Z,9.50
2019-04-22T06:06:09.225Z,9.78
2019-04-22T06:08:40.183Z,9.99
2019-04-22T06:11:13.165Z,10.15
2019-04-22T06:13:31.940Z,10.28
2019-04-22T06:16:12.718Z,10.38
2019-04-22T06:18:38.418Z,10.48
2019-04-22T06:21:11.397Z,10.54
2019-04-22T06:26:19.442Z,10.68
2019-04-22T06:31:20.964Z,10.91
2019-04-22T06:33:48.116Z,11.05
2019-04-22T06:36:15.583Z,11.17
2019-04-22T06:38:46.278Z,11.15
2019-04-22T06:41:27.263Z,11.22
2019-04-22T06:43:54.407Z,11.31
2019-04-22T06:46:20.426Z,11.50
2019-04-22T06:48:45.762Z,11.60
2019-04-22T06:51:21.347Z,11.56
2019-04-22T06:53:47.792Z,11.54
2019-04-22T06:56:20.196Z,11.57
2019-04-22T06:58:51.492Z,11.73
2019-04-22T07:01:40.462Z,11.78
2019-04-22T07:06:29.877Z,12.00
2019-04-22T07:11:18.972Z,12.22
2019-04-22T07:13:58.920Z,12.20
2019-04-22T07:16:30.009Z,12.36
2019-04-22T07:18:56.868Z,12.40
2019-04-22T07:21:25.976Z,12.48
2019-04-22T07:26:37.329Z,12.70
2019-04-22T07:28:58.260Z,12.87
2019-04-22T07:31:27.247Z,13.07
2019-04-22T07:33:58.205Z,13.13
2019-04-22T07:38:58.660Z,13.24
2019-04-22T07:41:34.614Z,13.24
2019-04-22T07:46:34.962Z,13.39
2019-04-22T07:49:02.373Z,13.32
2019-04-22T07:51:32.843Z,13.54
2019-04-22T07:54:01.312Z,13.68
2019-04-22T07:56:50.735Z,14.03
2019-04-22T07:59:03.707Z,14.33
2019-04-22T08:01:30.525Z,14.49
2019-04-22T08:06:41.574Z,14.42
2019-04-22T08:09:13.902Z,14.26
2019-04-22T08:14:12.498Z,14.69
2019-04-22T08:16:48.508Z,14.86
2019-04-22T08:19:18.221Z,14.95
2019-04-22T08:21:42.615Z,15.04
2019-04-22T08:24:17.952Z,14.89
2019-04-22T08:26:41.805Z,14.93
2019-04-22T08:29:14.818Z,14.85
2019-04-22T08:31:42.028Z,14.80
2019-04-22T08:34:14.163Z,15.14
2019-04-22T08:37:10.293Z,14.97
2019-04-22T08:41:41.501Z,15.03
2019-04-22T08:44:22.207Z,15.22
2019-04-22T08:46:53.939Z,15.38
2019-04-22T08:49:09.919Z,15.62
2019-04-22T08:51:42.862Z,15.59
2019-04-22T08:54:19.971Z,15.64
2019-04-22T08:56:45.962Z,15.75
2019-04-22T08:59:14.986Z,15.79
2019-04-22T09:01:48.980Z,15.84
2019-04-22T09:04:16.618Z,15.87
2019-04-22T09:09:27.243Z,15.76
2019-04-22T09:11:54.769Z,15.91
2019-04-22T09:14:34.750Z,16.04
2019-04-22T09:17:02.253Z,16.25
2019-04-22T09:19:24.062Z,16.34
2019-04-22T09:22:00.590Z,15.94
2019-04-22T09:24:29.523Z,15.67
2019-04-22T09:27:03.756Z,15.82
2019-04-22T09:29:34.090Z,16.16
2019-04-22T09:32:06.889Z,16.36
2019-04-22T09:34:38.265Z,16.47
2019-04-22T09:39:34.213Z,16.47
2019-04-22T09:42:05.257Z,16.46
2019-04-22T09:44:36.180Z,16.90
2019-04-22T09:47:06.183Z,17.30
2019-04-22T09:49:46.812Z,17.25
2019-04-22T09:52:10.190Z,17.22
2019-04-22T09:54:51.010Z,17.50
2019-04-22T09:57:10.880Z,17.30
2019-04-22T09:59:48.512Z,17.83
2019-04-22T10:04:48.208Z,17.69
2019-04-22T10:07:15.272Z,17.66
2019-04-22T10:09:59.431Z,18.63
2019-04-22T10:12:19.235Z,18.52
2019-04-22T10:17:12.325Z,18.43
2019-04-22T10:19:46.811Z,18.22
2019-04-22T10:22:27.621Z,18.16
2019-04-22T10:24:54.472Z,18.77
2019-04-22T10:27:23.953Z,17.99
2019-04-22T10:29:54.133Z,17.60
2019-04-22T10:32:20.622Z,17.89
2019-04-22T10:34:40.916Z,18.81
2019-04-22T10:37:10.879Z,18.76
2019-04-22T10:39:46.089Z,18.67
2019-04-22T10:42:11.189Z,19.24
2019-04-22T10:44:41.367Z,18.92
2019-04-22T10:47:10.145Z,18.51
2019-04-22T10:49:40.377Z,19.44
2019-04-22T10:52:09.184Z,19.29
2019-04-22T10:54:41.358Z,19.45
2019-04-22T10:57:10.864Z,18.84
2019-04-22T10:59:40.712Z,19.53
2019-04-22T11:02:09.869Z,19.33
2019-04-22T11:04:38.775Z,19.69
2019-04-22T11:07:11.085Z,18.95
2019-04-22T11:09:50.741Z,19.38
2019-04-22T11:12:16.428Z,19.59
2019-04-22T11:14:42.741Z,19.60
2019-04-22T11:17:11.408Z,19.48
2019-04-22T11:19:41.542Z,19.25
2019-04-22T11:22:19.995Z,19.98
2019-04-22T11:24:41.194Z,20.45
2019-04-22T11:27:10.754Z,20.57
2019-04-22T11:29:39.763Z,20.31
2019-04-22T11:32:08.611Z,20.95
2019-04-22T11:34:37.675Z,21.24
2019-04-22T11:37:06.398Z,19.97
2019-04-22T11:39:36.686Z,20.38
2019-04-22T11:42:05.744Z,20.41
2019-04-22T11:44:35.450Z,20.91
2019-04-22T11:47:05.323Z,21.48
2019-04-22T11:49:34.218Z,20.28
2019-04-22T11:52:05.528Z,20.98
2019-04-22T11:54:34.677Z,21.26
2019-04-22T11:57:05.311Z,21.71
2019-04-22T11:59:34.535Z,21.45
2019-04-22T12:02:04.642Z,20.34
2019-04-22T12:04:33.959Z,21.34
2019-04-22T12:07:04.244Z,20.52
2019-04-22T12:09:35.315Z,20.26
2019-04-22T12:12:05.769Z,21.28
2019-04-22T12:14:36.125Z,21.45
2019-04-22T12:17:05.694Z,20.75
2019-04-22T12:19:35.295Z,21.05
2019-04-22T12:22:04.865Z,21.05
2019-04-22T12:24:36.360Z,20.84
2019-04-22T12:27:06.387Z,20.92
2019-04-22T12:29:35.665Z,20.85
2019-04-22T12:32:05.330Z,21.85
2019-04-22T12:34:35.389Z,21.88
2019-04-22T12:37:04.626Z,22.13
2019-04-22T12:39:33.785Z,22.24
2019-04-22T12:42:02.799Z,22.00
2019-04-22T12:44:32.763Z,21.74
2019-04-22T12:47:04.363Z,22.14
2019-04-22T12:49:35.652Z,21.18
2019-04-22T12:52:03.377Z,21.24
2019-04-22T12:54:33.051Z,22.01
2019-04-22T12:57:03.992Z,21.88
2019-04-22T12:59:32.798Z,21.11
2019-04-22T13:02:03.038Z,22.10
2019-04-22T13:04:32.315Z,21.38
2019-04-22T13:07:01.846Z,21.90
2019-04-22T13:09:31.621Z,22.16
2019-04-22T13:12:01.274Z,22.18
2019-04-22T13:14:30.608Z,21.48
2019-04-22T13:16:59.820Z,20.72
2019-04-22T13:19:30.253Z,22.18
2019-04-22T13:21:59.025Z,22.31
2019-04-22T13:24:28.122Z,22.62
2019-04-22T13:26:57.378Z,22.23
2019-04-22T13:29:27.592Z,22.19
2019-04-22T13:31:56.603Z,22.80
2019-04-22T13:34:30.374Z,21.68
2019-04-22T13:36:56.734Z,20.81
2019-04-22T13:39:27.154Z,21.24
2019-04-22T13:42:02.090Z,22.44
2019-04-22T13:44:28.100Z,22.51
2019-04-22T13:47:15.707Z,22.13
2019-04-22T13:50:01.201Z,21.48
2019-04-22T13:54:58.694Z,21.88
2019-04-22T13:57:19.969Z,21.54
2019-04-22T13:59:40.341Z,21.82
2019-04-22T14:02:38.272Z,21.61
2019-04-22T14:05:08.666Z,21.36
2019-04-22T14:07:37.321Z,21.19
2019-04-22T14:10:08.548Z,20.88
2019-04-22T14:12:39.026Z,20.63
2019-04-22T14:15:09.871Z,21.35
2019-04-22T14:17:39.085Z,20.80
2019-04-22T14:20:09.042Z,21.67
2019-04-22T14:22:38.832Z,21.87
2019-04-22T14:25:08.037Z,22.14
2019-04-22T14:27:47.523Z,21.22
2019-04-22T14:30:08.453Z,21.23
2019-04-22T14:32:37.997Z,21.13
2019-04-22T14:35:09.204Z,21.92
2019-04-22T14:37:40.185Z,21.10
2019-04-22T14:40:12.322Z,20.84
2019-04-22T14:43:00.522Z,20.60
2019-04-22T14:45:42.601Z,21.29
2019-04-22T14:48:07.212Z,20.77
2019-04-22T14:50:35.489Z,21.12
2019-04-22T14:53:05.392Z,20.93
2019-04-22T14:55:21.471Z,20.27
2019-04-22T14:57:45.014Z,20.81
2019-04-22T15:00:18.171Z,21.08
2019-04-22T15:02:47.946Z,21.08
2019-04-22T15:05:18.577Z,20.47
2019-04-22T15:07:47.728Z,20.52
2019-04-22T15:10:18.156Z,20.53
2019-04-22T15:12:50.251Z,20.35
2019-04-22T15:15:43.393Z,20.23
2019-04-22T15:18:15.610Z,20.19
2019-04-22T15:20:54.031Z,20.19
2019-04-22T15:23:22.468Z,19.75
2019-04-22T15:25:52.861Z,20.03
2019-04-22T15:28:21.892Z,20.23
2019-04-22T15:30:51.199Z,20.37
2019-04-22T15:33:21.302Z,19.90
2019-04-22T15:35:51.531Z,19.69
2019-04-22T15:38:24.025Z,19.65
2019-04-22T15:40:52.503Z,19.63
2019-04-22T15:43:22.755Z,19.76
2019-04-22T15:45:52.858Z,19.67
2019-04-22T15:48:23.124Z,19.31
2019-04-22T15:50:53.015Z,19.16
2019-04-22T15:53:22.281Z,19.36
2019-04-22T15:55:52.474Z,19.48
2019-04-22T15:58:21.848Z,19.48
2019-04-22T16:00:59.987Z,19.45
2019-04-22T16:03:22.778Z,19.25
2019-04-22T16:05:52.200Z,18.74
2019-04-22T16:08:21.488Z,18.58
2019-04-22T16:10:51.716Z,18.76
2019-04-22T16:13:24.893Z,18.90
2019-04-22T16:15:52.204Z,18.92
2019-04-22T16:18:22.481Z,18.46
2019-04-22T16:20:52.452Z,18.40
2019-04-22T16:23:29.539Z,18.40
2019-04-22T16:29:03.360Z,18.34
2019-04-22T16:31:33.630Z,17.95
2019-04-22T16:34:02.968Z,18.22
2019-04-22T16:36:31.781Z,17.92
2019-04-22T16:39:00.610Z,17.96
2019-04-22T16:41:30.648Z,17.91
2019-04-22T16:44:00.819Z,17.65
2019-04-22T16:46:29.774Z,17.57
2019-04-22T16:48:59.016Z,18.18
2019-04-22T16:51:29.868Z,17.72
2019-04-22T16:54:00.007Z,17.65
2019-04-22T16:56:33.157Z,17.45
2019-04-22T16:59:00.968Z,17.22
2019-04-22T17:01:48.497Z,17.07
2019-04-22T17:04:22.954Z,17.17
2019-04-22T17:06:53.325Z,17.06
2019-04-22T17:09:23.680Z,17.14
2019-04-22T17:11:53.991Z,17.03
2019-04-22T17:14:27.264Z,17.27
2019-04-22T17:16:54.664Z,16.87
2019-04-22T17:19:23.660Z,16.79
2019-04-22T17:21:53.476Z,16.58
2019-04-22T17:24:23.647Z,16.72
2019-04-22T17:26:52.677Z,16.65
2019-04-22T17:29:22.806Z,16.56
2019-04-22T17:31:58.408Z,16.22
2019-04-22T17:34:23.343Z,16.00
2019-04-22T17:36:53.240Z,16.05
2019-04-22T17:39:31.690Z,16.13
2019-04-22T17:42:08.216Z,15.54
2019-04-22T17:44:54.290Z,15.49
2019-04-22T17:47:35.910Z,15.30
2019-04-22T17:50:11.743Z,15.09
2019-04-22T17:52:42.024Z,15.15
2019-04-22T17:55:11.290Z,15.09
2019-04-22T17:57:39.165Z,14.93
2019-04-22T18:00:11.401Z,14.64
2019-04-22T18:02:39.659Z,14.48
2019-04-22T18:05:01.482Z,14.46
2019-04-22T18:07:42.975Z,14.24
2019-04-22T18:12:53.478Z,14.01
2019-04-22T18:15:19.507Z,13.78
2019-04-22T18:17:59.264Z,13.56
2019-04-22T18:20:14.348Z,13.41
2019-04-22T18:22:39.668Z,13.35
2019-04-22T18:25:12.977Z,13.16
2019-04-22T18:28:07.412Z,13.10
2019-04-22T18:30:16.637Z,13.08
2019-04-22T18:32:51.355Z,12.92
2019-04-22T18:35:20.556Z,12.79
2019-04-22T18:37:59.199Z,12.86
2019-04-22T18:40:24.314Z,12.78
2019-04-22T18:42:58.799Z,12.62
2019-04-22T18:45:37.615Z,12.53
2019-04-22T18:47:48.853Z,12.48
2019-04-22T18:50:33.774Z,12.35
2019-04-22T18:53:23.427Z,12.38
2019-04-22T18:55:49.048Z,12.33
2019-04-22T18:58:16.610Z,12.21
2019-04-22T19:00:36.344Z,12.15
2019-04-22T19:03:12.982Z,12.07
2019-04-22T19:06:00.947Z,12.16
2019-04-22T19:08:29.249Z,12.04
2019-04-22T19:11:06.949Z,12.03
2019-04-22T19:16:14.326Z,11.87
2019-04-22T19:18:37.957Z,11.90
2019-04-22T19:21:07.995Z,11.88
2019-04-22T19:23:32.036Z,11.76
2019-04-22T19:26:08.107Z,11.71
2019-04-22T19:31:09.270Z,11.70
2019-04-22T19:33:53.848Z,11.79
2019-04-22T19:36:11.062Z,11.78
2019-04-22T19:38:27.650Z,11.84
2019-04-22T19:41:15.040Z,11.86
2019-04-22T19:43:39.026Z,11.85
2019-04-22T19:46:10.227Z,11.76
2019-04-22T19:48:56.579Z,11.74
2019-04-22T19:51:27.982Z,11.85
2019-04-22T19:53:40.478Z,11.79
2019-04-22T19:56:08.237Z,11.85
2019-04-22T19:58:41.165Z,11.76
2019-04-22T20:01:40.125Z,11.70
2019-04-22T20:04:28.207Z,11.68
2019-04-22T20:07:16.477Z,11.64
2019-04-22T20:09:55.606Z,11.72
2019-04-22T20:12:16.495Z,11.86
2019-04-22T20:14:49.508Z,11.77
2019-04-22T20:17:26.806Z,11.77
2019-04-22T20:19:55.954Z,11.68
2019-04-22T20:22:23.346Z,11.57
2019-04-22T20:24:44.880Z,11.64
2019-04-22T20:27:26.164Z,11.51
2019-04-22T20:30:13.361Z,11.45
2019-04-22T20:32:23.507Z,11.53
2019-04-22T20:35:01.084Z,11.59
2019-04-22T20:39:53.077Z,11.50
2019-04-22T20:42:38.211Z,11.49
2019-04-22T20:44:57.384Z,11.45
2019-04-22T20:47:22.014Z,11.57
2019-04-22T20:49:58.953Z,11.54
2019-04-22T20:52:36.246Z,11.46
2019-04-22T20:54:54.410Z,11.45
2019-04-22T20:57:34.817Z,11.47
2019-04-22T20:59:55.603Z,11.52
2019-04-22T21:02:25.189Z,11.50
2019-04-22T21:04:53.951Z,11.48
2019-04-22T21:07:26.773Z,11.49
2019-04-22T21:10:04.306Z,11.46
2019-04-22T21:12:27.329Z,11.45
2019-04-22T21:15:06.775Z,11.47
2019-04-22T21:17:34.731Z,11.44
2019-04-22T21:20:14.024Z,11.42
2019-04-22T21:22:38.917Z,11.43
2019-04-22T21:25:02.377Z,11.41
2019-04-22T21:27:45.102Z,11.47
2019-04-22T21:30:03.398Z,11.46
2019-04-22T21:32:38.545Z,11.46
2019-04-22T21:35:17.878Z,11.49
2019-04-22T21:37:43.236Z,11.48
2019-04-22T21:40:08.318Z,11.50
2019-04-22T21:42:50.186Z,11.54
2019-04-22T21:45:09.273Z,11.50
2019-04-22T21:47:55.735Z,11.58
2019-04-22T21:52:51.432Z,11.39
2019-04-22T21:55:16.110Z,11.42
2019-04-22T21:58:16.124Z,11.41
2019-04-22T22:00:55.735Z,11.42
2019-04-22T22:03:13.003Z,11.41
2019-04-22T22:05:34.295Z,11.33
2019-04-22T22:08:21.582Z,11.39
2019-04-22T22:10:49.208Z,11.43
2019-04-22T22:13:13.839Z,11.36
2019-04-22T22:15:42.221Z,11.32
2019-04-22T22:18:12.254Z,11.35
2019-04-22T22:21:00.985Z,11.30
2019-04-22T22:25:43.625Z,11.32
2019-04-22T22:28:36.133Z,11.34
2019-04-22T22:31:05.018Z,11.33
2019-04-22T22:33:17.056Z,11.37
2019-04-22T22:35:45.669Z,11.36
2019-04-22T22:38:19.191Z,11.40
2019-04-22T22:40:32.810Z,11.45
2019-04-22T22:43:11.804Z,11.54
2019-04-22T22:45:39.342Z,11.57
2019-04-22T22:48:25.293Z,11.53
2019-04-22T22:50:50.911Z,11.58
2019-04-22T22:55:52.090Z,11.76
2019-04-22T22:58:27.730Z,11.83
2019-04-22T23:00:50.589Z,11.86
2019-04-22T23:05:57.627Z,11.92
2019-04-22T23:08:47.394Z,11.99
2019-04-22T23:13:34.227Z,12.02
2019-04-22T23:15:54.514Z,11.98
2019-04-22T23:18:10.081Z,11.97
2019-04-22T23:20:44.042Z,11.96
2019-04-22T23:23:27.696Z,11.98
2019-04-22T23:26:03.857Z,11.91
2019-04-22T23:28:43.585Z,11.85
2019-04-22T23:31:25.058Z,11.87
2019-04-22T23:34:01.027Z,11.89
2019-04-22T23:37:03.240Z,11.89
2019-04-22T23:39:42.031Z,11.92
2019-04-22T23:42:15.909Z,11.84
2019-04-22T23:44:39.840Z,11.83
2019-04-22T23:47:23.925Z,11.71
2019-04-22T23:50:01.114Z,11.78
2019-04-22T23:52:35.754Z,11.73
2019-04-22T23:55:11.660Z,11.67
2019-04-22T23:57:55.734Z,11.58
